createdAt,value
2023-02-03T00:07:59.000Z,5.70
2023-02-03T00:27:59.000Z,7.70
2023-02-03T00:37:59.000Z,7.20
2023-02-03T00:47:59.000Z,7.00
2023-02-03T00:57:59.000Z,6.90
2023-02-03T01:07:59.000Z,8.50
2023-02-03T01:17:59.000Z,10.50
2023-02-03T01:28:00.000Z,8.80
2023-02-03T01:38:00.000Z,11.90
2023-02-03T01:58:00.000Z,13.50
2023-02-03T02:08:00.000Z,14.30
2023-02-03T02:18:00.000Z,17.40
2023-02-03T02:28:00.000Z,20.00
2023-02-03T02:38:00.000Z,22.10
2023-02-03T02:48:00.000Z,26.70
2023-02-03T02:58:00.000Z,32.10
2023-02-03T03:08:00.000Z,38.00
2023-02-03T03:27:59.000Z,38.30
2023-02-03T03:37:59.000Z,37.00
2023-02-03T03:47:59.000Z,34.50
2023-02-03T03:57:59.000Z,33.40
2023-02-03T04:07:59.000Z,24.80
2023-02-03T04:17:59.000Z,25.30
2023-02-03T04:27:58.000Z,27.00
2023-02-03T04:37:58.000Z,27.40
2023-02-03T04:57:58.000Z,26.40
2023-02-03T05:07:58.000Z,29.90
2023-02-03T05:17:57.000Z,28.80
2023-02-03T05:27:57.000Z,25.80
2023-02-03T05:37:56.000Z,24.00
2023-02-03T05:47:56.000Z,20.60
2023-02-03T05:57:56.000Z,19.60
2023-02-03T06:07:55.000Z,20.60
2023-02-03T06:27:55.000Z,22.20
2023-02-03T06:37:54.000Z,19.90
2023-02-03T06:47:54.000Z,17.20
2023-02-03T06:57:54.000Z,17.30
2023-02-03T07:07:53.000Z,15.70
2023-02-03T07:17:53.000Z,14.90
2023-02-03T07:48:10.000Z,14.00
2023-02-03T08:08:27.000Z,14.70
2023-02-03T08:08:27.000Z,13.40
2023-02-03T08:18:27.000Z,11.80
2023-02-03T08:28:27.000Z,10.70
2023-02-03T08:38:27.000Z,10.20
2023-02-03T08:48:28.000Z,10.60
2023-02-03T08:58:28.000Z,9.20
2023-02-03T09:39:02.000Z,8.60
2023-02-03T09:39:02.000Z,7.40
2023-02-03T09:49:02.000Z,8.10
2023-02-03T09:59:01.000Z,7.40
2023-02-03T10:09:01.000Z,6.40
2023-02-03T10:19:01.000Z,6.20
2023-02-03T10:29:00.000Z,5.80
2023-02-03T10:39:00.000Z,6.10
2023-02-03T10:48:59.000Z,5.60
2023-02-03T12:21:54.000Z,8.60
2023-02-03T12:21:54.000Z,5.10
2023-02-03T12:31:54.000Z,5.90
2023-02-03T12:41:54.000Z,5.20
2023-02-03T12:51:54.000Z,4.30
2023-02-03T13:01:54.000Z,5.00
2023-02-03T13:11:54.000Z,4.10
2023-02-03T13:21:54.000Z,5.60
2023-02-03T13:31:54.000Z,5.10
2023-02-03T13:51:54.000Z,4.60
2023-02-03T14:01:54.000Z,8.40
2023-02-03T14:11:54.000Z,5.00
2023-02-03T14:21:54.000Z,6.60
2023-02-03T14:31:54.000Z,6.90
2023-02-03T14:41:55.000Z,6.10
2023-02-03T14:51:55.000Z,7.40
2023-02-03T15:01:55.000Z,9.10
2023-02-03T15:21:55.000Z,6.30
2023-02-03T15:31:55.000Z,6.90
2023-02-03T15:41:56.000Z,5.80
2023-02-03T15:51:56.000Z,6.30
2023-02-03T16:01:56.000Z,5.60
2023-02-03T16:11:56.000Z,6.20
2023-02-03T16:21:56.000Z,6.50
2023-02-03T16:31:56.000Z,5.70
2023-02-03T16:51:56.000Z,6.50
2023-02-03T17:01:56.000Z,7.40
2023-02-03T17:11:56.000Z,6.90
2023-02-03T17:21:56.000Z,6.80
2023-02-03T18:02:50.000Z,8.10
2023-02-03T18:02:50.000Z,5.60
2023-02-03T18:12:50.000Z,5.70
2023-02-03T18:22:50.000Z,7.00
2023-02-03T18:32:50.000Z,7.00
2023-02-03T18:42:50.000Z,10.10
2023-02-03T18:52:50.000Z,7.50
2023-02-03T19:02:51.000Z,5.90
2023-02-03T19:12:51.000Z,9.40
2023-02-03T19:32:51.000Z,6.30
2023-02-03T19:42:51.000Z,6.90
2023-02-03T19:52:51.000Z,5.90
2023-02-03T20:02:51.000Z,7.30
2023-02-03T20:12:51.000Z,5.80
2023-02-03T20:22:52.000Z,7.50
2023-02-03T20:32:52.000Z,7.80
2023-02-03T20:42:52.000Z,5.40
2023-02-03T21:02:52.000Z,5.80
2023-02-03T21:12:52.000Z,5.90
2023-02-03T21:22:53.000Z,6.30
2023-02-03T21:32:53.000Z,7.10
2023-02-03T21:42:53.000Z,5.80
2023-02-03T21:52:53.000Z,7.50
2023-02-03T22:02:53.000Z,6.00
2023-02-03T22:12:53.000Z,6.70
2023-02-03T22:32:54.000Z,6.70
2023-02-03T22:42:54.000Z,6.20
2023-02-03T22:52:54.000Z,6.10
2023-02-03T23:02:54.000Z,6.20
2023-02-03T23:12:54.000Z,5.30
2023-02-03T23:22:54.000Z,5.90
2023-02-03T23:32:55.000Z,6.20
2023-02-03T23:42:55.000Z,5.00
